createdAt,value
2022-11-05T00:02:39.740Z,39.50
2022-11-05T00:05:27.064Z,39.80
2022-11-05T00:08:13.100Z,44.50
2022-11-05T00:10:40.205Z,41.20
2022-11-05T00:13:28.340Z,44.70
2022-11-05T00:16:14.021Z,36.50
2022-11-05T00:18:41.002Z,42.60
2022-11-05T00:21:28.028Z,34.80
2022-11-05T00:24:14.184Z,41.00
2022-11-05T00:26:41.134Z,34.80
2022-11-05T00:29:08.121Z,36.30
2022-11-05T00:31:35.097Z,33.40
2022-11-05T00:34:02.062Z,39.90
2022-11-05T00:36:29.014Z,41.30
2022-11-05T00:38:55.945Z,40.90
2022-11-05T00:41:22.931Z,39.00
2022-11-05T00:44:08.450Z,36.90
2022-11-05T00:46:35.377Z,41.00
2022-11-05T00:49:20.918Z,41.60
2022-11-05T00:51:47.861Z,40.00
2022-11-05T00:54:14.922Z,44.50
2022-11-05T00:56:41.941Z,41.70
2022-11-05T00:59:08.887Z,45.70
2022-11-05T01:01:35.903Z,57.00
2022-11-05T01:04:03.188Z,51.70
2022-11-05T01:06:30.124Z,50.00
2022-11-05T01:08:57.074Z,57.00
2022-11-05T01:11:33.392Z,52.10
2022-11-05T01:14:03.618Z,52.00
2022-11-05T01:16:31.700Z,51.90
2022-11-05T01:18:58.867Z,47.00
2022-11-05T01:21:25.893Z,41.40
2022-11-05T01:23:53.505Z,46.70
2022-11-05T01:26:20.580Z,42.10
2022-11-05T01:28:55.191Z,43.60
2022-11-05T01:31:23.162Z,43.60
2022-11-05T01:33:50.304Z,48.00
2022-11-05T01:36:17.983Z,46.20
2022-11-05T01:38:44.958Z,47.80
2022-11-05T01:41:12.130Z,44.70
2022-11-05T01:43:58.730Z,46.30
2022-11-05T01:46:33.274Z,44.60
2022-11-05T01:49:10.082Z,42.90
2022-11-05T01:51:37.753Z,45.70
2022-11-05T01:54:10.185Z,43.80
2022-11-05T01:56:45.818Z,41.10
2022-11-05T01:59:17.980Z,37.80
2022-11-05T02:01:45.172Z,41.90
2022-11-05T02:04:17.763Z,39.60
2022-11-05T02:06:46.171Z,37.10
2022-11-05T02:09:29.058Z,41.70
2022-11-05T02:11:56.710Z,37.90
2022-11-05T02:14:24.052Z,37.70
2022-11-05T02:16:57.943Z,40.60
2022-11-05T02:20:02.443Z,47.90
2022-11-05T02:23:00.943Z,51.00
2022-11-05T02:28:32.074Z,46.40
2022-11-05T02:31:05.111Z,43.10
2022-11-05T02:34:07.395Z,44.20
2022-11-05T02:36:43.365Z,38.90
2022-11-05T02:39:49.854Z,37.60
2022-11-05T02:42:35.189Z,37.80
2022-11-05T02:45:14.330Z,37.60
2022-11-05T02:47:46.540Z,36.10
2022-11-05T02:50:29.688Z,33.90
2022-11-05T02:53:40.592Z,35.60
2022-11-05T02:56:28.568Z,35.80
2022-11-05T02:58:55.541Z,35.30
2022-11-05T03:01:22.628Z,36.50
2022-11-05T03:03:57.960Z,36.40
2022-11-05T03:06:59.042Z,36.20
2022-11-05T03:09:35.106Z,38.50
2022-11-05T03:12:05.104Z,34.50
2022-11-05T03:14:39.789Z,35.20
2022-11-05T03:17:11.752Z,33.50
2022-11-05T03:19:53.634Z,34.20
2022-11-05T03:22:28.729Z,33.70
2022-11-05T03:25:01.326Z,38.50
2022-11-05T03:27:35.891Z,33.20
2022-11-05T03:30:07.580Z,37.90
2022-11-05T03:32:39.322Z,32.60
2022-11-05T03:35:15.984Z,32.10
2022-11-05T03:37:46.942Z,30.40
2022-11-05T03:40:18.052Z,33.90
2022-11-05T03:42:49.605Z,34.50
2022-11-05T03:45:32.247Z,34.10
2022-11-05T03:48:02.022Z,33.60
2022-11-05T03:50:58.762Z,31.20
2022-11-05T03:53:29.129Z,31.30
2022-11-05T03:56:13.659Z,33.90
2022-11-05T03:58:44.264Z,38.80
2022-11-05T04:01:12.018Z,34.10
2022-11-05T04:03:38.957Z,36.60
2022-11-05T04:06:25.850Z,33.40
2022-11-05T04:09:13.170Z,38.80
2022-11-05T04:11:59.037Z,33.70
2022-11-05T04:14:26.075Z,33.00
2022-11-05T04:17:11.169Z,32.40
2022-11-05T04:19:58.847Z,43.30
2022-11-05T04:22:46.383Z,36.10
2022-11-05T04:25:15.337Z,42.50
2022-11-05T04:30:19.211Z,41.60
2022-11-05T04:33:06.524Z,44.00
2022-11-05T04:35:38.547Z,39.30
2022-11-05T04:38:08.200Z,42.60
2022-11-05T04:40:36.081Z,43.70
2022-11-05T04:43:03.820Z,45.40
2022-11-05T04:45:33.965Z,40.70
2022-11-05T04:48:02.656Z,44.10
2022-11-05T04:50:30.843Z,40.60
2022-11-05T04:52:58.523Z,41.20
2022-11-05T04:55:26.284Z,45.20
2022-11-05T04:57:54.192Z,43.80
2022-11-05T05:00:22.932Z,42.60
2022-11-05T05:02:50.179Z,36.90
2022-11-05T05:05:17.569Z,44.80
2022-11-05T05:07:44.585Z,63.90
2022-11-05T05:10:11.786Z,43.90
2022-11-05T05:12:38.794Z,40.30
2022-11-05T05:15:06.296Z,45.50
2022-11-05T05:17:33.630Z,30.10
2022-11-05T05:20:19.201Z,34.90
2022-11-05T05:22:55.681Z,38.90
2022-11-05T05:25:23.054Z,30.50
2022-11-05T05:27:50.282Z,30.90
2022-11-05T05:30:17.552Z,35.00
2022-11-05T05:32:44.611Z,27.50
2022-11-05T05:35:11.674Z,31.60
2022-11-05T05:37:38.848Z,30.00
2022-11-05T05:40:06.582Z,32.60
2022-11-05T05:42:37.470Z,31.10
2022-11-05T05:45:07.451Z,29.40
2022-11-05T05:47:34.453Z,29.20
2022-11-05T05:50:01.472Z,34.60
2022-11-05T05:52:28.472Z,36.80
2022-11-05T05:54:55.481Z,33.30
2022-11-05T05:57:22.514Z,38.20
2022-11-05T05:59:49.513Z,36.30
2022-11-05T06:02:16.763Z,36.20
2022-11-05T06:04:43.858Z,39.90
2022-11-05T06:07:10.918Z,31.90
2022-11-05T06:09:38.010Z,60.30
2022-11-05T06:12:05.479Z,66.20
2022-11-05T06:14:32.503Z,56.60
2022-11-05T06:16:59.489Z,46.20
2022-11-05T06:19:26.766Z,38.00
2022-11-05T06:21:53.807Z,37.00
2022-11-05T06:24:20.971Z,85.50
2022-11-05T06:26:48.097Z,81.30
2022-11-05T06:29:15.372Z,44.60
2022-11-05T06:31:42.438Z,45.70
2022-11-05T06:34:09.603Z,47.00
2022-11-05T06:36:36.580Z,35.40
2022-11-05T06:39:03.847Z,38.50
2022-11-05T06:41:30.827Z,34.50
2022-11-05T06:43:58.013Z,43.00
2022-11-05T06:46:25.073Z,38.90
2022-11-05T06:48:52.279Z,45.80
2022-11-05T06:51:19.313Z,42.00
2022-11-05T06:53:46.561Z,48.20
2022-11-05T06:56:13.816Z,42.60
2022-11-05T06:58:41.069Z,46.20
2022-11-05T07:01:10.209Z,39.00
2022-11-05T07:03:38.251Z,43.30
2022-11-05T07:06:07.258Z,43.10
2022-11-05T07:08:36.369Z,38.20
2022-11-05T07:11:04.169Z,35.10
2022-11-05T07:13:31.568Z,43.90
2022-11-05T07:15:58.968Z,47.70
2022-11-05T07:18:26.264Z,60.10
2022-11-05T07:20:53.559Z,59.40
2022-11-05T07:23:21.092Z,35.80
2022-11-05T07:25:48.469Z,34.60
2022-11-05T07:28:15.691Z,49.00
2022-11-05T07:30:43.015Z,38.60
2022-11-05T07:33:10.423Z,56.20
2022-11-05T07:35:37.893Z,41.20
2022-11-05T07:38:05.157Z,32.90
2022-11-05T07:40:32.528Z,52.60
2022-11-05T07:43:01.267Z,27.80
2022-11-05T07:48:02.741Z,28.30
2022-11-05T07:50:32.823Z,33.40
2022-11-05T07:53:04.847Z,34.30
2022-11-05T07:55:33.262Z,30.20
2022-11-05T07:58:00.584Z,36.00
2022-11-05T08:00:29.321Z,38.30
2022-11-05T08:05:36.521Z,41.90
2022-11-05T08:08:05.029Z,34.80
2022-11-05T08:10:33.705Z,53.70
2022-11-05T08:15:28.303Z,40.20
2022-11-05T08:18:06.631Z,27.90
2022-11-05T08:20:34.895Z,34.70
2022-11-05T08:23:02.733Z,27.90
2022-11-05T08:25:30.671Z,36.20
2022-11-05T08:28:08.442Z,26.10
2022-11-05T08:30:36.028Z,34.40
2022-11-05T08:33:06.264Z,30.10
2022-11-05T08:35:35.962Z,41.70
2022-11-05T08:38:05.608Z,32.30
2022-11-05T08:40:35.121Z,27.60
2022-11-05T08:43:05.039Z,27.00
2022-11-05T08:45:33.816Z,171.60
2022-11-05T08:48:02.424Z,24.40
2022-11-05T08:50:31.845Z,68.70
2022-11-05T08:52:59.361Z,69.00
2022-11-05T08:55:27.413Z,29.90
2022-11-05T08:57:56.320Z,125.30
2022-11-05T09:02:50.833Z,46.50
2022-11-05T09:05:18.062Z,47.10
2022-11-05T09:07:46.289Z,37.70
2022-11-05T09:10:13.483Z,28.60
2022-11-05T09:12:40.696Z,27.80
2022-11-05T09:15:08.980Z,61.20
2022-11-05T09:17:36.361Z,41.80
2022-11-05T09:20:06.586Z,52.60
2022-11-05T09:22:37.874Z,29.30
2022-11-05T09:25:08.338Z,40.30
2022-11-05T09:27:35.849Z,41.00
2022-11-05T09:30:04.681Z,26.30
2022-11-05T09:32:32.719Z,25.20
2022-11-05T09:35:00.758Z,23.80
2022-11-05T09:37:29.385Z,40.20
2022-11-05T09:39:57.421Z,22.70
2022-11-05T09:42:34.339Z,28.90
2022-11-05T09:45:15.198Z,32.30
2022-11-05T09:47:47.366Z,26.80
2022-11-05T09:50:32.261Z,21.70
2022-11-05T09:53:00.500Z,28.90
2022-11-05T09:55:32.764Z,32.90
2022-11-05T09:58:04.298Z,30.70
2022-11-05T10:00:33.604Z,30.30
2022-11-05T10:03:06.243Z,53.10
2022-11-05T10:05:34.362Z,47.20
2022-11-05T10:08:16.391Z,34.70
2022-11-05T10:10:55.607Z,31.90
2022-11-05T10:13:37.321Z,24.70
2022-11-05T10:16:32.177Z,26.30
2022-11-05T10:19:14.205Z,22.00
2022-11-05T10:22:05.589Z,29.30
2022-11-05T10:24:29.107Z,29.30
2022-11-05T10:26:57.363Z,24.60
2022-11-05T10:29:29.958Z,26.40
2022-11-05T10:32:01.175Z,21.00
2022-11-05T10:34:34.102Z,36.40
2022-11-05T10:37:01.704Z,28.50
2022-11-05T10:39:32.125Z,24.60
2022-11-05T10:42:05.354Z,27.30
2022-11-05T10:44:54.386Z,28.40
2022-11-05T10:47:50.396Z,23.30
2022-11-05T10:50:29.572Z,26.80
2022-11-05T10:53:14.777Z,25.50
2022-11-05T10:55:46.219Z,27.40
2022-11-05T10:58:13.335Z,26.30
2022-11-05T11:00:43.540Z,39.50
2022-11-05T11:03:34.431Z,28.50
2022-11-05T11:06:24.061Z,32.50
2022-11-05T11:08:55.028Z,28.30
2022-11-05T11:11:29.949Z,24.90
2022-11-05T11:13:57.140Z,27.80
2022-11-05T11:16:27.422Z,31.50
2022-11-05T11:19:00.512Z,35.30
2022-11-05T11:21:31.238Z,26.90
2022-11-05T11:24:08.933Z,30.10
2022-11-05T11:26:38.336Z,33.20
2022-11-05T11:29:14.203Z,24.70
2022-11-05T11:31:41.985Z,32.30
2022-11-05T11:34:20.466Z,25.60
2022-11-05T11:39:23.497Z,21.30
2022-11-05T11:41:54.578Z,32.60
2022-11-05T11:44:26.901Z,28.20
2022-11-05T11:46:58.070Z,28.10
2022-11-05T11:49:43.909Z,26.80
2022-11-05T11:52:18.944Z,26.50
2022-11-05T11:54:46.252Z,24.40
2022-11-05T11:57:28.318Z,26.50
2022-11-05T12:00:14.084Z,24.10
2022-11-05T12:03:08.686Z,28.70
2022-11-05T12:06:01.290Z,25.10
2022-11-05T12:08:56.535Z,24.20
2022-11-05T12:11:34.820Z,26.10
2022-11-05T12:14:12.961Z,25.50
2022-11-05T12:17:10.282Z,32.60
2022-11-05T12:19:59.521Z,28.00
2022-11-05T12:22:45.207Z,24.50
2022-11-05T12:25:35.757Z,24.30
2022-11-05T12:28:11.797Z,27.80
2022-11-05T12:30:54.000Z,28.30
2022-11-05T12:33:45.613Z,33.70
2022-11-05T12:36:46.841Z,29.00
2022-11-05T12:39:23.038Z,27.00
2022-11-05T12:42:07.015Z,26.60
2022-11-05T12:44:48.150Z,27.80
2022-11-05T12:47:30.412Z,29.90
2022-11-05T12:50:16.615Z,50.80
2022-11-05T12:53:13.176Z,84.20
2022-11-05T12:55:48.355Z,36.30
2022-11-05T12:58:48.256Z,34.50
2022-11-05T13:01:27.212Z,44.90
2022-11-05T13:04:15.092Z,32.30
2022-11-05T13:06:48.737Z,32.20
2022-11-05T13:09:25.521Z,32.50
2022-11-05T13:11:58.395Z,33.40
2022-11-05T13:14:34.546Z,28.30
2022-11-05T13:17:24.508Z,39.60
2022-11-05T13:20:14.519Z,38.40
2022-11-05T13:22:48.151Z,41.80
2022-11-05T13:25:28.294Z,30.50
2022-11-05T13:28:17.118Z,40.80
2022-11-05T13:30:48.298Z,45.70
2022-11-05T13:33:27.589Z,42.80
2022-11-05T13:36:17.887Z,42.00
2022-11-05T13:39:06.413Z,44.00
2022-11-05T13:44:59.063Z,49.20
2022-11-05T13:47:38.148Z,43.30
2022-11-05T13:50:36.269Z,55.40
2022-11-05T13:55:49.214Z,38.60
2022-11-05T13:58:42.670Z,40.20
2022-11-05T14:01:24.338Z,41.00
2022-11-05T14:03:55.213Z,38.20
2022-11-05T14:06:33.703Z,40.10
2022-11-05T14:09:06.939Z,44.10
2022-11-05T14:11:40.759Z,48.80
2022-11-05T14:14:20.482Z,55.20
2022-11-05T14:16:47.677Z,46.20
2022-11-05T14:19:17.899Z,64.50
2022-11-05T14:21:52.655Z,61.10
2022-11-05T14:24:22.582Z,56.10
2022-11-05T14:27:01.963Z,47.50
2022-11-05T14:29:39.414Z,43.50
2022-11-05T14:32:24.610Z,38.60
2022-11-05T14:35:03.479Z,34.20
2022-11-05T14:37:36.436Z,31.20
2022-11-05T14:40:19.017Z,46.20
2022-11-05T14:42:51.505Z,39.90
2022-11-05T14:45:40.072Z,39.50
2022-11-05T14:50:51.385Z,50.00
2022-11-05T14:53:30.667Z,55.20
2022-11-05T14:56:18.690Z,51.30
2022-11-05T14:58:46.425Z,43.90
2022-11-05T15:01:13.607Z,52.90
2022-11-05T15:03:45.864Z,149.30
2022-11-05T15:06:19.847Z,64.30
2022-11-05T15:08:49.737Z,70.20
2022-11-05T15:11:37.555Z,109.00
2022-11-05T15:14:30.297Z,79.50
2022-11-05T15:17:17.932Z,95.50
2022-11-05T15:19:46.761Z,95.80
2022-11-05T15:25:03.994Z,84.90
2022-11-05T15:27:50.028Z,75.70
2022-11-05T15:30:19.864Z,71.20
2022-11-05T15:32:47.104Z,93.10
2022-11-05T15:35:23.028Z,76.10
2022-11-05T15:37:54.842Z,69.20
2022-11-05T15:40:29.693Z,69.60
2022-11-05T15:43:19.062Z,75.20
2022-11-05T15:45:59.213Z,77.10
2022-11-05T15:48:26.430Z,84.00
2022-11-05T15:50:53.759Z,88.50
2022-11-05T15:53:51.482Z,99.40
2022-11-05T15:56:38.468Z,120.70
2022-11-05T15:59:32.146Z,135.60
2022-11-05T16:02:18.018Z,131.50
2022-11-05T16:04:47.825Z,157.90
2022-11-05T16:07:15.828Z,138.70
2022-11-05T16:09:53.030Z,134.30
2022-11-05T16:12:20.375Z,132.70
2022-11-05T16:15:16.933Z,117.60
2022-11-05T16:17:50.897Z,135.90
2022-11-05T16:20:28.779Z,131.90
2022-11-05T16:22:59.005Z,119.70
2022-11-05T16:25:43.084Z,117.70
2022-11-05T16:28:23.492Z,122.00
2022-11-05T16:30:56.135Z,109.50
2022-11-05T16:33:25.627Z,113.90
2022-11-05T16:35:53.107Z,109.10
2022-11-05T16:38:20.579Z,100.50
2022-11-05T16:40:47.823Z,114.40
2022-11-05T16:43:21.622Z,125.80
2022-11-05T16:45:48.952Z,108.20
2022-11-05T16:48:16.461Z,115.30
2022-11-05T16:50:45.472Z,127.70
2022-11-05T16:53:13.287Z,108.30
2022-11-05T16:55:42.444Z,131.10
2022-11-05T16:58:20.738Z,135.00
2022-11-05T17:00:50.631Z,115.60
2022-11-05T17:03:18.322Z,119.60
2022-11-05T17:05:45.664Z,135.80
2022-11-05T17:08:13.046Z,113.20
2022-11-05T17:10:40.527Z,100.20
2022-11-05T17:13:12.688Z,107.60
2022-11-05T17:15:41.375Z,106.50
2022-11-05T17:20:45.562Z,121.40
2022-11-05T17:23:15.290Z,145.70
2022-11-05T17:25:45.135Z,153.70
2022-11-05T17:28:13.326Z,145.40
2022-11-05T17:30:41.912Z,134.00
2022-11-05T17:33:10.749Z,179.50
2022-11-05T17:35:39.722Z,167.50
2022-11-05T17:38:07.045Z,136.90
2022-11-05T17:40:35.425Z,148.00
2022-11-05T17:43:03.035Z,111.00
2022-11-05T17:45:30.692Z,93.70
2022-11-05T17:47:57.901Z,97.30
2022-11-05T17:50:24.973Z,94.90
2022-11-05T17:52:51.933Z,83.00
2022-11-05T17:55:19.037Z,92.90
2022-11-05T17:57:48.493Z,97.60
2022-11-05T18:00:20.992Z,94.10
2022-11-05T18:02:49.131Z,103.00
2022-11-05T18:05:17.894Z,131.90
2022-11-05T18:07:46.302Z,108.80
2022-11-05T18:10:14.224Z,97.60
2022-11-05T18:12:41.356Z,68.80
2022-11-05T18:15:09.251Z,63.80
2022-11-05T18:17:36.334Z,58.20
2022-11-05T18:20:09.133Z,51.50
2022-11-05T18:22:38.499Z,54.10
2022-11-05T18:25:07.104Z,57.10
2022-11-05T18:27:34.862Z,54.50
2022-11-05T18:30:02.889Z,45.30
2022-11-05T18:32:30.078Z,49.60
2022-11-05T18:34:57.045Z,62.00
2022-11-05T18:37:24.085Z,74.00
2022-11-05T18:39:51.540Z,77.70
2022-11-05T18:42:20.155Z,89.80
2022-11-05T18:44:47.986Z,106.80
2022-11-05T18:47:15.219Z,107.80
2022-11-05T18:49:42.246Z,82.70
2022-11-05T18:52:09.261Z,89.80
2022-11-05T18:54:36.309Z,87.20
2022-11-05T18:57:03.561Z,97.50
2022-11-05T18:59:37.781Z,99.50
2022-11-05T19:02:07.332Z,111.50
2022-11-05T19:04:35.873Z,109.20
2022-11-05T19:07:05.518Z,105.90
2022-11-05T19:09:34.365Z,116.30
2022-11-05T19:12:02.265Z,109.90
2022-11-05T19:14:29.716Z,89.00
2022-11-05T19:16:57.853Z,120.00
2022-11-05T19:19:25.410Z,128.70
2022-11-05T19:21:52.693Z,123.80
2022-11-05T19:24:20.073Z,128.90
2022-11-05T19:26:47.594Z,136.20
2022-11-05T19:29:14.558Z,126.90
2022-11-05T19:31:41.787Z,138.30
2022-11-05T19:34:08.777Z,164.20
2022-11-05T19:36:35.837Z,178.80
2022-11-05T19:39:05.989Z,164.50
2022-11-05T19:41:33.025Z,164.40
2022-11-05T19:44:03.047Z,164.00
2022-11-05T19:46:30.786Z,168.70
2022-11-05T19:48:59.881Z,233.90
2022-11-05T19:51:29.741Z,203.40
2022-11-05T19:53:59.492Z,167.50
2022-11-05T19:56:32.136Z,158.20
2022-11-05T19:59:00.190Z,151.60
2022-11-05T20:01:28.820Z,149.70
2022-11-05T20:06:30.836Z,122.20
2022-11-05T20:11:49.280Z,87.60
2022-11-05T20:14:16.512Z,89.60
2022-11-05T20:16:45.287Z,83.90
2022-11-05T20:21:41.448Z,72.60
2022-11-05T20:24:11.325Z,74.20
2022-11-05T20:26:39.137Z,78.80
2022-11-05T20:29:06.276Z,81.30
2022-11-05T20:31:34.017Z,83.30
2022-11-05T20:34:01.114Z,96.00
2022-11-05T20:36:28.129Z,99.60
2022-11-05T20:39:02.318Z,79.70
2022-11-05T20:41:30.285Z,66.90
2022-11-05T20:43:57.518Z,65.30
2022-11-05T20:46:25.063Z,72.00
2022-11-05T20:48:53.460Z,63.80
2022-11-05T20:51:22.121Z,61.90
2022-11-05T20:53:54.462Z,65.70
2022-11-05T20:56:27.234Z,63.50
2022-11-05T20:58:57.427Z,72.50
2022-11-05T21:01:26.288Z,65.80
2022-11-05T21:03:53.634Z,79.60
2022-11-05T21:06:21.204Z,84.10
2022-11-05T21:08:49.962Z,90.30
2022-11-05T21:11:18.786Z,100.10
2022-11-05T21:13:46.201Z,91.70
2022-11-05T21:16:18.250Z,89.50
2022-11-05T21:18:46.758Z,91.10
2022-11-05T21:21:17.215Z,80.60
2022-11-05T21:23:44.667Z,84.80
2022-11-05T21:26:13.616Z,81.90
2022-11-05T21:28:41.426Z,85.60
2022-11-05T21:31:09.505Z,82.00
2022-11-05T21:33:37.204Z,77.20
2022-11-05T21:36:10.042Z,79.80
2022-11-05T21:38:37.967Z,75.70
2022-11-05T21:41:05.881Z,84.90
2022-11-05T21:43:33.574Z,77.70
2022-11-05T21:46:01.953Z,99.20
2022-11-05T21:48:29.405Z,92.60
2022-11-05T21:51:14.927Z,86.00
2022-11-05T21:54:00.457Z,71.10
2022-11-05T21:56:46.603Z,67.50
2022-11-05T21:59:35.236Z,90.60
2022-11-05T22:04:31.707Z,115.50
2022-11-05T22:06:59.097Z,102.10
2022-11-05T22:09:26.833Z,87.80
2022-11-05T22:11:54.274Z,76.50
2022-11-05T22:14:21.312Z,73.00
2022-11-05T22:16:48.512Z,63.60
2022-11-05T22:19:15.548Z,55.70
2022-11-05T22:21:42.653Z,57.00
2022-11-05T22:24:10.104Z,54.10
2022-11-05T22:26:39.372Z,59.90
2022-11-05T22:29:06.901Z,60.30
2022-11-05T22:31:36.560Z,70.90
2022-11-05T22:34:05.561Z,72.20
2022-11-05T22:36:34.000Z,67.70
2022-11-05T22:39:01.748Z,96.10
2022-11-05T22:41:29.041Z,84.70
2022-11-05T22:43:56.962Z,87.20
2022-11-05T22:46:26.048Z,82.30
2022-11-05T22:48:53.595Z,88.70
2022-11-05T22:51:23.474Z,76.90
2022-11-05T22:53:50.627Z,95.10
2022-11-05T22:56:21.143Z,79.00
2022-11-05T22:58:49.070Z,74.50
2022-11-05T23:01:19.891Z,64.80
2022-11-05T23:03:49.243Z,66.80
2022-11-05T23:06:36.685Z,60.20
2022-11-05T23:09:25.477Z,73.20
2022-11-05T23:11:53.502Z,48.00
2022-11-05T23:14:20.545Z,49.40
2022-11-05T23:17:06.060Z,48.70
2022-11-05T23:19:51.750Z,43.50
2022-11-05T23:22:43.932Z,30.70
2022-11-05T23:25:16.531Z,32.20
2022-11-05T23:27:45.026Z,31.00
2022-11-05T23:30:21.038Z,29.50
2022-11-05T23:32:48.506Z,37.10
2022-11-05T23:35:16.307Z,40.20
2022-11-05T23:38:01.855Z,51.90
2022-11-05T23:40:51.156Z,51.00
2022-11-05T23:43:36.632Z,43.70
2022-11-05T23:46:22.007Z,56.70
2022-11-05T23:48:50.175Z,56.60
2022-11-05T23:51:17.380Z,56.70
2022-11-05T23:53:44.399Z,47.90
2022-11-05T23:56:14.547Z,45.70
2022-11-05T23:58:42.325Z,37.00
